createdAt,value
2023-01-13T00:01:08.009Z,10.10
2023-01-13T00:03:36.156Z,10.20
2023-01-13T00:06:04.744Z,10.10
2023-01-13T00:08:33.332Z,10.10
2023-01-13T00:11:03.104Z,10.10
2023-01-13T00:13:32.980Z,10.10
2023-01-13T00:16:02.727Z,10.20
2023-01-13T00:18:30.884Z,10.20
2023-01-13T00:21:03.311Z,10.20
2023-01-13T00:23:33.100Z,10.20
2023-01-13T00:26:06.788Z,10.20
2023-01-13T00:28:35.097Z,10.20
2023-01-13T00:31:06.608Z,10.10
2023-01-13T00:33:34.603Z,10.00
2023-01-13T00:36:03.853Z,10.00
2023-01-13T00:38:33.105Z,9.90
2023-01-13T00:41:04.833Z,10.00
2023-01-13T00:43:33.793Z,10.00
2023-01-13T00:46:02.384Z,10.00
2023-01-13T00:48:31.182Z,10.00
2023-01-13T00:51:01.056Z,10.00
2023-01-13T00:53:30.307Z,10.10
2023-01-13T00:56:38.632Z,10.10
2023-01-13T00:59:08.457Z,10.10
2023-01-13T01:01:36.644Z,10.10
2023-01-13T01:04:04.830Z,10.00
2023-01-13T01:06:32.945Z,10.10
2023-01-13T01:09:01.015Z,10.10
2023-01-13T01:11:32.307Z,10.10
2023-01-13T01:14:02.281Z,10.10
2023-01-13T01:16:32.837Z,10.10
2023-01-13T01:19:01.832Z,10.00
2023-01-13T01:21:30.334Z,10.00
2023-01-13T01:24:01.337Z,10.00
2023-01-13T01:26:31.861Z,10.00
2023-01-13T01:29:02.047Z,10.10
2023-01-13T01:31:32.438Z,10.00
2023-01-13T01:34:01.443Z,10.00
2023-01-13T01:36:30.346Z,10.00
2023-01-13T01:38:59.549Z,10.00
2023-01-13T01:41:31.655Z,10.00
2023-01-13T01:44:02.373Z,9.90
2023-01-13T01:46:33.353Z,9.90
2023-01-13T01:49:06.234Z,9.90
2023-01-13T01:51:38.090Z,9.90
2023-01-13T01:54:10.628Z,9.90
2023-01-13T01:56:44.338Z,10.00
2023-01-13T01:59:13.677Z,10.00
2023-01-13T02:01:42.309Z,10.10
2023-01-13T02:04:15.169Z,10.00
2023-01-13T02:06:45.304Z,10.00
2023-01-13T02:09:17.688Z,10.00
2023-01-13T02:12:04.744Z,9.90
2023-01-13T02:14:34.532Z,9.80
2023-01-13T02:17:16.014Z,9.80
2023-01-13T02:20:41.352Z,9.80
2023-01-13T02:23:58.882Z,9.80
2023-01-13T02:26:52.903Z,9.90
2023-01-13T02:29:59.590Z,9.90
2023-01-13T02:32:34.103Z,9.80
2023-01-13T02:35:08.172Z,9.80
2023-01-13T02:37:40.062Z,9.70
2023-01-13T02:40:13.179Z,9.70
2023-01-13T02:43:04.056Z,9.80
2023-01-13T02:45:38.430Z,9.80
2023-01-13T02:48:09.880Z,9.70
2023-01-13T02:50:42.729Z,9.70
2023-01-13T02:53:14.697Z,9.70
2023-01-13T02:55:47.597Z,9.60
2023-01-13T02:58:19.093Z,9.60
2023-01-13T03:00:50.078Z,9.60
2023-01-13T03:03:18.217Z,9.60
2023-01-13T03:05:49.099Z,9.60
2023-01-13T03:08:31.877Z,9.50
2023-01-13T03:11:10.870Z,9.60
2023-01-13T03:14:02.489Z,9.60
2023-01-13T03:16:53.827Z,9.60
2023-01-13T03:19:37.317Z,9.70
2023-01-13T03:22:16.330Z,9.70
2023-01-13T03:24:48.733Z,9.70
2023-01-13T03:27:23.245Z,9.70
2023-01-13T03:29:55.159Z,9.70
2023-01-13T03:32:28.196Z,9.80
2023-01-13T03:35:00.972Z,9.70
2023-01-13T03:37:34.167Z,9.60
2023-01-13T03:40:08.512Z,9.50
2023-01-13T03:42:39.335Z,9.50
2023-01-13T03:45:13.022Z,9.40
2023-01-13T03:47:48.828Z,9.40
2023-01-13T03:50:19.459Z,9.40
2023-01-13T03:52:52.604Z,9.40
2023-01-13T03:55:27.846Z,9.50
2023-01-13T03:58:02.472Z,9.50
2023-01-13T04:00:36.854Z,9.50
2023-01-13T04:03:09.568Z,9.50
2023-01-13T04:05:41.476Z,9.50
2023-01-13T04:08:18.541Z,9.40
2023-01-13T04:10:52.925Z,9.40
2023-01-13T04:13:23.661Z,9.40
2023-01-13T04:15:51.803Z,9.40
2023-01-13T04:18:23.547Z,9.30
2023-01-13T04:20:53.654Z,9.30
2023-01-13T04:23:22.737Z,9.30
2023-01-13T04:25:51.518Z,9.30
2023-01-13T04:28:19.868Z,9.20
2023-01-13T04:30:48.850Z,9.20
2023-01-13T04:33:18.711Z,9.10
2023-01-13T04:35:48.817Z,9.10
2023-01-13T04:38:18.692Z,9.10
2023-01-13T04:40:46.907Z,9.10
2023-01-13T04:43:16.091Z,9.20
2023-01-13T04:45:44.548Z,9.10
2023-01-13T04:48:12.726Z,9.10
2023-01-13T04:50:40.779Z,9.10
2023-01-13T04:53:10.160Z,9.10
2023-01-13T04:55:38.196Z,9.10
2023-01-13T04:58:07.529Z,9.20
2023-01-13T05:00:35.930Z,9.10
2023-01-13T05:03:04.890Z,9.10
2023-01-13T05:05:33.256Z,9.10
2023-01-13T05:08:01.454Z,9.10
2023-01-13T05:10:31.258Z,9.10
2023-01-13T05:13:16.615Z,9.10
2023-01-13T05:16:02.441Z,9.10
2023-01-13T05:18:32.527Z,9.10
2023-01-13T05:21:00.567Z,9.20
2023-01-13T05:23:46.713Z,9.20
2023-01-13T05:26:16.121Z,9.30
2023-01-13T05:28:44.171Z,9.20
2023-01-13T05:31:14.896Z,9.20
2023-01-13T05:33:43.114Z,9.20
2023-01-13T05:36:11.419Z,9.20
2023-01-13T05:38:39.468Z,9.20
2023-01-13T05:41:21.450Z,9.30
2023-01-13T05:43:50.857Z,9.30
2023-01-13T05:46:19.012Z,9.30
2023-01-13T05:48:48.144Z,9.30
2023-01-13T05:51:16.179Z,9.30
2023-01-13T05:53:44.208Z,9.20
2023-01-13T05:56:12.606Z,9.20
2023-01-13T05:58:40.671Z,9.10
2023-01-13T06:01:11.167Z,9.10
2023-01-13T06:03:39.527Z,9.10
2023-01-13T06:06:08.993Z,9.10
2023-01-13T06:08:39.534Z,9.20
2023-01-13T06:11:07.929Z,9.20
2023-01-13T06:13:35.956Z,9.20
2023-01-13T06:16:04.097Z,9.30
2023-01-13T06:18:33.644Z,9.20
2023-01-13T06:21:01.642Z,9.10
2023-01-13T06:23:32.046Z,9.10
2023-01-13T06:26:05.135Z,9.10
2023-01-13T06:28:34.870Z,9.10
2023-01-13T06:31:07.190Z,9.10
2023-01-13T06:33:39.367Z,9.10
2023-01-13T06:36:13.006Z,9.10
2023-01-13T06:38:44.494Z,9.20
2023-01-13T06:41:12.652Z,9.20
2023-01-13T06:43:40.327Z,9.10
2023-01-13T06:46:08.545Z,9.00
2023-01-13T06:48:37.943Z,9.10
2023-01-13T06:51:06.112Z,9.10
2023-01-13T06:53:34.233Z,9.10
2023-01-13T06:56:02.349Z,9.00
2023-01-13T06:58:30.333Z,9.00
2023-01-13T07:01:01.500Z,8.90
2023-01-13T07:03:29.763Z,8.90
2023-01-13T07:05:59.827Z,8.90
2023-01-13T07:08:27.892Z,8.90
2023-01-13T07:10:55.914Z,9.00
2023-01-13T07:13:41.445Z,9.00
2023-01-13T07:16:10.556Z,9.00
2023-01-13T07:18:38.831Z,9.00
2023-01-13T07:21:10.040Z,9.00
2023-01-13T07:23:41.158Z,9.00
2023-01-13T07:26:10.074Z,9.00
2023-01-13T07:28:39.065Z,9.10
2023-01-13T07:31:14.122Z,9.10
2023-01-13T07:33:42.141Z,9.10
2023-01-13T07:36:12.154Z,9.10
2023-01-13T07:38:40.654Z,9.10
2023-01-13T07:41:22.584Z,9.10
2023-01-13T07:43:53.140Z,9.10
2023-01-13T07:46:21.163Z,9.00
2023-01-13T07:48:50.047Z,8.90
2023-01-13T07:51:19.381Z,8.90
2023-01-13T07:53:47.620Z,8.90
2023-01-13T07:56:15.706Z,8.90
2023-01-13T07:58:44.877Z,8.90
2023-01-13T08:01:16.682Z,9.00
2023-01-13T08:03:45.376Z,9.00
2023-01-13T08:06:13.819Z,9.00
2023-01-13T08:08:43.177Z,9.00
2023-01-13T08:11:11.299Z,8.90
2023-01-13T08:13:39.364Z,8.90
2023-01-13T08:16:12.587Z,9.00
2023-01-13T08:18:41.396Z,9.10
2023-01-13T08:21:11.251Z,9.10
2023-01-13T08:23:39.412Z,9.00
2023-01-13T08:26:12.845Z,9.00
2023-01-13T08:28:41.478Z,9.00
2023-01-13T08:31:12.392Z,9.00
2023-01-13T08:33:40.952Z,9.00
2023-01-13T08:36:11.135Z,9.00
2023-01-13T08:38:39.314Z,8.90
2023-01-13T08:41:13.248Z,8.90
2023-01-13T08:43:41.537Z,8.90
2023-01-13T08:46:09.757Z,8.90
2023-01-13T08:48:37.912Z,9.00
2023-01-13T08:51:07.468Z,9.00
2023-01-13T08:53:35.716Z,9.10
2023-01-13T08:56:07.619Z,9.10
2023-01-13T08:58:36.915Z,9.10
2023-01-13T09:01:06.559Z,9.10
2023-01-13T09:03:34.694Z,9.10
2023-01-13T09:06:02.812Z,9.10
2023-01-13T09:08:30.795Z,9.10
2023-01-13T09:10:59.019Z,9.10
2023-01-13T09:13:26.352Z,9.10
2023-01-13T09:15:57.093Z,9.10
2023-01-13T09:18:25.270Z,9.10
2023-01-13T09:20:53.452Z,9.10
2023-01-13T09:23:21.417Z,9.00
2023-01-13T09:25:50.141Z,8.90
2023-01-13T09:28:18.192Z,9.00
2023-01-13T09:30:46.325Z,9.10
2023-01-13T09:33:33.277Z,9.00
2023-01-13T09:36:01.697Z,9.00
2023-01-13T09:38:29.705Z,9.00
2023-01-13T09:40:57.997Z,9.00
2023-01-13T09:43:49.861Z,9.00
2023-01-13T09:46:44.493Z,8.90
2023-01-13T09:49:20.844Z,9.00
2023-01-13T09:51:56.579Z,9.10
2023-01-13T09:54:32.469Z,9.10
2023-01-13T09:57:00.968Z,9.10
2023-01-13T09:59:36.379Z,9.10
2023-01-13T10:02:18.088Z,9.10
2023-01-13T10:05:03.847Z,9.10
2023-01-13T10:07:35.438Z,9.20
2023-01-13T10:10:09.404Z,9.20
2023-01-13T10:12:54.895Z,9.20
2023-01-13T10:15:25.977Z,9.30
2023-01-13T10:18:00.806Z,9.40
2023-01-13T10:20:37.067Z,9.40
2023-01-13T10:23:16.926Z,9.40
2023-01-13T10:25:57.011Z,9.40
2023-01-13T10:28:25.445Z,9.40
2023-01-13T10:30:53.887Z,9.50
2023-01-13T10:33:28.137Z,9.50
2023-01-13T10:36:01.132Z,9.40
2023-01-13T10:38:32.034Z,9.40
2023-01-13T10:41:01.572Z,9.40
2023-01-13T10:43:31.264Z,9.40
2023-01-13T10:46:02.309Z,9.50
2023-01-13T10:48:35.850Z,9.50
2023-01-13T10:51:25.479Z,9.50
2023-01-13T10:53:56.979Z,9.60
2023-01-13T10:56:27.209Z,9.50
2023-01-13T10:59:14.883Z,9.50
2023-01-13T11:01:44.244Z,9.60
2023-01-13T11:04:36.132Z,9.60
2023-01-13T11:07:17.590Z,9.50
2023-01-13T11:09:45.808Z,9.60
2023-01-13T11:12:31.670Z,9.60
2023-01-13T11:15:01.386Z,9.60
2023-01-13T11:17:38.471Z,9.60
2023-01-13T11:20:18.458Z,9.60
2023-01-13T11:22:50.081Z,9.60
2023-01-13T11:25:24.139Z,9.60
2023-01-13T11:27:59.241Z,9.60
2023-01-13T11:30:35.172Z,9.60
2023-01-13T11:33:26.551Z,9.60
2023-01-13T11:36:05.675Z,9.50
2023-01-13T11:38:44.423Z,9.50
2023-01-13T11:41:20.073Z,9.50
2023-01-13T11:43:50.397Z,9.50
2023-01-13T11:46:18.771Z,9.50
2023-01-13T11:48:46.983Z,9.50
2023-01-13T11:51:28.200Z,9.60
2023-01-13T11:54:19.449Z,9.50
2023-01-13T11:57:07.854Z,9.50
2023-01-13T12:00:19.298Z,9.40
2023-01-13T12:02:58.109Z,9.30
2023-01-13T12:05:35.416Z,9.20
2023-01-13T12:08:18.125Z,9.10
2023-01-13T12:10:58.316Z,8.90
2023-01-13T12:13:37.166Z,8.80
2023-01-13T12:16:26.408Z,8.80
2023-01-13T12:19:28.075Z,8.90
2023-01-13T12:22:17.590Z,9.00
2023-01-13T12:24:50.533Z,9.10
2023-01-13T12:27:27.967Z,9.00
2023-01-13T12:29:59.836Z,9.00
2023-01-13T12:32:39.587Z,9.00
2023-01-13T12:35:22.801Z,8.90
2023-01-13T12:38:00.954Z,8.90
2023-01-13T12:40:46.968Z,9.00
2023-01-13T12:43:35.900Z,9.00
2023-01-13T12:46:35.578Z,9.00
2023-01-13T12:49:07.855Z,8.90
2023-01-13T12:51:37.742Z,9.00
2023-01-13T12:54:34.812Z,8.90
2023-01-13T12:57:15.546Z,8.90
2023-01-13T12:59:50.867Z,8.80
2023-01-13T13:02:36.823Z,8.70
2023-01-13T13:05:23.765Z,8.70
2023-01-13T13:07:55.074Z,8.70
2023-01-13T13:10:29.275Z,8.60
2023-01-13T13:13:17.528Z,8.60
2023-01-13T13:15:48.028Z,8.70
2023-01-13T13:18:27.303Z,8.70
2023-01-13T13:21:05.148Z,8.60
2023-01-13T13:24:02.917Z,8.60
2023-01-13T13:26:39.569Z,8.60
2023-01-13T13:29:36.655Z,8.60
2023-01-13T13:32:28.439Z,8.60
2023-01-13T13:35:10.474Z,8.60
2023-01-13T13:38:09.650Z,8.60
2023-01-13T13:40:59.905Z,8.70
2023-01-13T13:43:46.594Z,8.70
2023-01-13T13:46:45.632Z,8.70
2023-01-13T13:49:15.941Z,8.70
2023-01-13T13:51:49.286Z,8.70
2023-01-13T13:54:20.452Z,8.70
2023-01-13T13:56:50.309Z,8.70
2023-01-13T13:59:22.099Z,8.70
2023-01-13T14:02:00.788Z,8.80
2023-01-13T14:04:32.276Z,8.90
2023-01-13T14:07:02.221Z,8.80
2023-01-13T14:09:41.856Z,8.80
2023-01-13T14:12:18.528Z,8.90
2023-01-13T14:14:47.370Z,8.90
2023-01-13T14:17:25.759Z,8.90
2023-01-13T14:20:01.375Z,9.00
2023-01-13T14:22:31.419Z,9.00
2023-01-13T14:25:01.688Z,9.00
2023-01-13T14:27:31.079Z,9.00
2023-01-13T14:30:02.195Z,9.00
2023-01-13T14:32:34.717Z,9.00
2023-01-13T14:35:07.580Z,8.90
2023-01-13T14:37:38.491Z,8.80
2023-01-13T14:40:07.842Z,8.90
2023-01-13T14:42:36.176Z,8.90
2023-01-13T14:45:04.634Z,8.90
2023-01-13T14:47:35.639Z,8.80
2023-01-13T14:50:07.475Z,8.80
2023-01-13T14:52:38.566Z,8.90
2023-01-13T14:55:41.690Z,8.80
2023-01-13T14:58:26.130Z,8.70
2023-01-13T15:01:29.027Z,8.60
2023-01-13T15:04:17.241Z,8.60
2023-01-13T15:06:50.458Z,8.70
2023-01-13T15:09:25.549Z,8.60
2023-01-13T15:11:54.252Z,8.70
2023-01-13T15:14:26.443Z,8.70
2023-01-13T15:16:54.507Z,8.70
2023-01-13T15:19:22.542Z,8.60
2023-01-13T15:21:51.865Z,8.60
2023-01-13T15:24:19.849Z,8.60
2023-01-13T15:26:47.905Z,8.70
2023-01-13T15:29:16.084Z,8.70
2023-01-13T15:31:44.229Z,8.80
2023-01-13T15:34:12.350Z,8.80
2023-01-13T15:36:41.316Z,8.80
2023-01-13T15:39:14.043Z,8.80
2023-01-13T15:41:59.512Z,8.70
2023-01-13T15:44:44.834Z,8.70
2023-01-13T15:47:14.626Z,8.70
2023-01-13T15:49:44.963Z,8.70
2023-01-13T15:52:21.338Z,8.80
2023-01-13T15:54:51.427Z,8.80
2023-01-13T15:57:23.508Z,8.80
2023-01-13T15:59:52.812Z,8.80
2023-01-13T16:02:22.548Z,8.90
2023-01-13T16:04:53.708Z,8.90
2023-01-13T16:07:23.477Z,8.90
2023-01-13T16:09:53.423Z,8.90
2023-01-13T16:12:21.622Z,8.90
2023-01-13T16:14:49.715Z,8.90
2023-01-13T16:17:19.861Z,8.90
2023-01-13T16:19:48.444Z,8.90
2023-01-13T16:22:17.157Z,9.00
2023-01-13T16:24:45.276Z,9.00
2023-01-13T16:27:17.795Z,9.10
2023-01-13T16:29:46.826Z,9.10
2023-01-13T16:32:15.104Z,9.20
2023-01-13T16:34:43.539Z,9.10
2023-01-13T16:37:22.263Z,9.10
2023-01-13T16:39:51.024Z,9.00
2023-01-13T16:42:21.269Z,9.10
2023-01-13T16:44:50.863Z,9.10
2023-01-13T16:47:19.632Z,9.20
2023-01-13T16:49:48.398Z,9.10
2023-01-13T16:52:16.474Z,9.00
2023-01-13T16:54:44.519Z,8.90
2023-01-13T16:57:13.933Z,9.00
2023-01-13T16:59:43.233Z,9.00
2023-01-13T17:02:14.664Z,9.00
2023-01-13T17:04:42.779Z,8.90
2023-01-13T17:07:16.100Z,8.80
2023-01-13T17:09:44.148Z,8.80
2023-01-13T17:12:12.636Z,8.70
2023-01-13T17:14:43.154Z,8.60
2023-01-13T17:17:22.776Z,8.70
2023-01-13T17:19:51.129Z,8.70
2023-01-13T17:22:19.467Z,8.80
2023-01-13T17:24:48.752Z,8.80
2023-01-13T17:27:18.531Z,8.80
2023-01-13T17:29:46.925Z,8.80
2023-01-13T17:32:18.633Z,8.80
2023-01-13T17:34:49.871Z,8.80
2023-01-13T17:37:18.144Z,8.70
2023-01-13T17:39:48.372Z,8.80
2023-01-13T17:42:16.823Z,8.80
2023-01-13T17:44:44.850Z,8.70
2023-01-13T17:47:12.867Z,8.70
2023-01-13T17:49:42.275Z,8.70
2023-01-13T17:52:10.358Z,8.70
2023-01-13T17:54:39.838Z,8.60
2023-01-13T17:57:07.810Z,8.60
2023-01-13T17:59:35.841Z,8.60
2023-01-13T18:02:04.806Z,8.70
2023-01-13T18:04:32.992Z,8.70
2023-01-13T18:07:02.333Z,8.70
2023-01-13T18:09:30.397Z,8.80
2023-01-13T18:11:58.773Z,8.70
2023-01-13T18:14:26.870Z,8.70
2023-01-13T18:16:54.939Z,8.70
2023-01-13T18:19:40.345Z,8.70
2023-01-13T18:22:30.905Z,8.70
2023-01-13T18:25:16.380Z,8.70
2023-01-13T18:27:44.555Z,8.70
2023-01-13T18:30:13.787Z,8.70
2023-01-13T18:32:41.847Z,8.80
2023-01-13T18:35:11.966Z,8.70
2023-01-13T18:37:43.007Z,8.70
2023-01-13T18:40:13.350Z,8.70
2023-01-13T18:42:54.490Z,8.80
2023-01-13T18:45:25.220Z,8.80
2023-01-13T18:47:54.807Z,8.80
2023-01-13T18:50:23.113Z,8.90
2023-01-13T18:52:52.895Z,8.90
2023-01-13T18:55:21.831Z,8.90
2023-01-13T18:57:50.331Z,8.90
2023-01-13T19:00:20.401Z,8.80
2023-01-13T19:02:50.679Z,8.80
2023-01-13T19:05:19.117Z,8.80
2023-01-13T19:07:50.914Z,8.80
2023-01-13T19:10:20.627Z,8.80
2023-01-13T19:12:48.729Z,8.70
2023-01-13T19:15:17.129Z,8.80
2023-01-13T19:17:46.701Z,8.80
2023-01-13T19:20:14.702Z,8.90
2023-01-13T19:22:42.855Z,8.90
2023-01-13T19:25:11.009Z,8.90
2023-01-13T19:27:42.796Z,8.90
2023-01-13T19:30:12.207Z,8.90
2023-01-13T19:32:40.270Z,8.90
2023-01-13T19:35:08.948Z,8.90
2023-01-13T19:37:37.155Z,8.90
2023-01-13T19:40:09.234Z,8.90
2023-01-13T19:42:54.743Z,8.90
2023-01-13T19:45:31.552Z,8.90
2023-01-13T19:48:02.269Z,9.00
2023-01-13T19:50:30.720Z,9.00
2023-01-13T19:52:58.944Z,9.10
2023-01-13T19:55:28.025Z,9.10
2023-01-13T19:57:56.138Z,9.10
2023-01-13T20:00:25.583Z,9.10
2023-01-13T20:02:56.283Z,9.10
2023-01-13T20:05:26.185Z,9.10
2023-01-13T20:07:54.396Z,9.10
2023-01-13T20:10:23.560Z,9.10
2023-01-13T20:12:51.791Z,9.20
2023-01-13T20:15:19.872Z,9.20
2023-01-13T20:17:49.313Z,9.20
2023-01-13T20:20:18.592Z,9.20
2023-01-13T20:22:50.369Z,9.20
2023-01-13T20:25:19.040Z,9.20
2023-01-13T20:27:48.149Z,9.20
2023-01-13T20:30:16.702Z,9.20
2023-01-13T20:32:45.429Z,9.30
2023-01-13T20:35:15.351Z,9.20
2023-01-13T20:37:44.323Z,9.20
2023-01-13T20:40:15.699Z,9.10
2023-01-13T20:42:45.065Z,9.20
2023-01-13T20:45:17.039Z,9.20
2023-01-13T20:47:45.892Z,9.20
2023-01-13T20:50:15.834Z,9.10
2023-01-13T20:52:44.586Z,9.10
2023-01-13T20:55:13.727Z,9.20
2023-01-13T20:57:41.918Z,9.10
2023-01-13T21:00:11.405Z,9.10
2023-01-13T21:02:40.993Z,9.00
2023-01-13T21:05:09.593Z,8.90
2023-01-13T21:07:39.174Z,8.90
2023-01-13T21:10:07.896Z,8.90
2023-01-13T21:13:01.927Z,8.90
2023-01-13T21:15:30.070Z,8.80
2023-01-13T21:18:15.496Z,9.00
2023-01-13T21:20:43.602Z,8.90
2023-01-13T21:23:12.970Z,8.90
2023-01-13T21:25:41.132Z,8.80
2023-01-13T21:28:11.706Z,8.80
2023-01-13T21:30:40.336Z,8.80
2023-01-13T21:33:08.859Z,8.70
2023-01-13T21:35:39.627Z,8.70
2023-01-13T21:38:07.984Z,8.70
2023-01-13T21:40:37.455Z,8.80
2023-01-13T21:43:22.852Z,8.80
2023-01-13T21:46:08.397Z,8.70
2023-01-13T21:48:36.506Z,8.70
2023-01-13T21:51:04.989Z,8.70
2023-01-13T21:53:33.032Z,8.70
2023-01-13T21:56:02.417Z,8.60
2023-01-13T21:58:30.454Z,8.60
2023-01-13T22:01:02.704Z,8.70
2023-01-13T22:03:50.931Z,8.60
2023-01-13T22:06:18.919Z,8.70
2023-01-13T22:08:47.170Z,8.70
2023-01-13T22:11:20.850Z,8.80
2023-01-13T22:14:07.478Z,8.80
2023-01-13T22:16:41.631Z,8.80
2023-01-13T22:19:11.134Z,8.80
2023-01-13T22:21:39.864Z,8.80
2023-01-13T22:24:08.268Z,8.90
2023-01-13T22:26:37.773Z,8.80
2023-01-13T22:29:05.851Z,8.90
2023-01-13T22:31:38.522Z,8.90
2023-01-13T22:34:06.999Z,8.90
2023-01-13T22:36:36.434Z,8.90
2023-01-13T22:39:05.383Z,9.00
2023-01-13T22:41:38.076Z,8.90
2023-01-13T22:44:08.420Z,8.80
2023-01-13T22:46:38.954Z,8.80
2023-01-13T22:49:07.119Z,8.80
2023-01-13T22:51:35.301Z,8.80
2023-01-13T22:54:06.197Z,8.80
2023-01-13T22:56:37.233Z,8.80
2023-01-13T22:59:09.442Z,8.90
2023-01-13T23:01:39.212Z,8.90
2023-01-13T23:04:07.635Z,8.90
2023-01-13T23:06:37.366Z,8.90
2023-01-13T23:09:05.950Z,9.00
2023-01-13T23:11:39.143Z,9.00
2023-01-13T23:14:11.827Z,9.00
2023-01-13T23:16:52.119Z,9.00
2023-01-13T23:19:20.425Z,9.00
2023-01-13T23:22:06.238Z,8.90
2023-01-13T23:24:43.771Z,8.90
2023-01-13T23:27:11.909Z,8.90
2023-01-13T23:29:41.480Z,8.80
2023-01-13T23:32:09.458Z,8.80
2023-01-13T23:34:37.644Z,8.80
2023-01-13T23:37:05.654Z,8.80
2023-01-13T23:39:33.651Z,8.80
2023-01-13T23:42:01.580Z,8.80
2023-01-13T23:44:29.586Z,8.80
2023-01-13T23:47:03.260Z,8.80
2023-01-13T23:49:31.701Z,8.90
2023-01-13T23:51:59.787Z,8.90
2023-01-13T23:54:28.020Z,8.90
2023-01-13T23:56:56.109Z,8.80
2023-01-13T23:59:24.306Z,8.70
